• Join FlightAware (Why Join?)
  • Login
  • US Flag 
01:12AM EDT


 

Airport Tracker/Info


-or-


 

Live Flight TrackerFlight Track Log ✈ GJS3710 ✈ 12-May-2013 ✈ KORD - KALB

Flight Track Log - Related Links

Times and Time Zones

All times are in EDT time to prevent confusion due to time zone crossing. See the GJS3710 flight status page for this flight to view local times or setup timezone preferences in your user account.

Time Position Orientation Groundspeed Altitude Reporting Facility
EDT Latitude Longitude Course Direction KTS MPH feet Rate Location/Type
09:32PM 41.9833 -87.8000 86° East 209 241 3,300  Level Chicago TRACON
09:34PM 42.1747 -87.3262 66° East  Level FlightAware Approximate
09:34PM 41.9944 -87.5975 86° East 288 331 8,500  Level Chicago Center
09:35PM 42.2242 -87.1775 66° East  Level FlightAware Approximate
09:35PM 41.9869 -87.4850 95° East 300 345 10,500  Level Chicago Center
09:36PM 42.2667 -87.0266 90° East  Level FlightAware Approximate
09:36PM 41.9750 -87.3547 97° East 349 402 12,000  Level Chicago Center
09:37PM 42.2733 -86.8636 86° East  Level FlightAware Approximate
09:37PM 41.9911 -87.2144 81° East 379 436 13,600  Level Chicago Center
09:38PM 42.0144 -87.0381 80° East 400 460 15,800 1,920 Climbing Chicago Center
09:39PM 42.0328 -86.8881 81° East 406 467 17,600 1,440 Climbing Chicago Center
09:40PM 42.0511 -86.7292 81° East 421 484 18,800 1,320 Climbing Chicago Center
09:41PM 42.0678 -86.5664 82° East 440 506 20,400 1,500 Climbing Chicago Center
09:42PM 42.0869 -86.4003 81° East 447 514 21,900 1,380 Climbing Chicago Center
09:43PM 42.1050 -86.2339 82° East 449 517 23,300 1,140 Climbing Chicago Center
09:44PM 42.1239 -86.0633 81° East 458 527 24,300 1,020 Climbing Chicago Center
09:45PM 42.1447 -85.8681 82° East 468 539 25,400 1,020 Climbing Chicago Center
09:46PM 42.1892 -85.7036 70° East 471 542 26,400 960 Climbing Chicago Center
09:47PM 42.2067 -85.5256 82° East 489 563 27,400 960 Climbing Chicago Center
09:48PM 42.2211 -85.3456 84° East 488 562 28,400 960 Climbing Chicago Center
09:49PM 42.2361 -85.1631 84° East 491 565 29,400 1,020 Climbing Chicago Center
09:50PM 42.2528 -84.9442 84° East 493 567 30,600 1,080 Climbing Chicago Center
09:51PM 42.2658 -84.7622 84° East 490 564 31,700 780 Climbing Chicago Center
09:52PM 42.2753 -84.5992 85° East 491 565 32,300 540 Climbing Cleveland Center
09:53PM 42.2942 -84.4181 82° East 486 559 32,800 600 Climbing Cleveland Center
09:54PM 42.3189 -84.2342 80° East 492 566 33,600 780 Climbing Cleveland Center
09:55PM 42.3456 -84.0472 79° East 497 572 34,400 780 Climbing Cleveland Center
09:56PM 42.3717 -83.8661 79° East 497 572 35,200 840 Climbing Cleveland Center
09:57PM 42.3956 -83.6844 80° East 497 572 36,100 780 Climbing Cleveland Center
09:58PM 42.4111 -83.4828 84° East 497 572 36,800 420 Climbing Cleveland Center
09:59PM 42.4178 -83.2944 87° East 497 572 37,000 60 Climbing Cleveland Center
10:00PM 42.4242 -83.1092 87° East 492 566 37,000  Level Cleveland Center
10:01PM 42.4303 -82.9153 87° East 497 572 37,000  Level Cleveland Center
10:02PM 42.4381 -82.7242 87° East 497 572 37,000  Level Cleveland Center
10:03PM 42.4436 -82.5303 88° East 502 578 37,000  Level Cleveland Center
10:04PM 42.4489 -82.3419 88° East 502 578 37,000  Level Cleveland Center
10:05PM 42.4517 -82.1506 89° East 502 578 37,000  Level Cleveland Center
10:06PM 42.4561 -81.9622 88° East 496 571 37,000  Level Cleveland Center
10:07PM 42.4600 -81.8103 88° East 496 571 37,000  Level Cleveland Center
10:08PM 42.4661 -81.5853 88° East 496 571 37,000  Level Cleveland Center
10:09PM 42.4700 -81.3883 88° East 501 577 37,000  Level Cleveland Center
10:10PM 42.4753 -81.1969 88° East 501 577 37,000  Level Cleveland Center
10:11PM 42.4781 -81.0056 89° East 507 583 37,000  Level Cleveland Center
10:12PM 42.4808 -80.8142 89° East 513 590 37,000  Level Cleveland Center
10:13PM 42.4831 -80.6197 89° East 513 590 37,000  Level Cleveland Center
10:14PM 42.4850 -80.4256 89° East 513 590 37,000  Level Cleveland Center
10:15PM 42.4867 -80.2256 89° East 518 596 37,000  Level Cleveland Center
10:16PM 42.4861 -80.0483 90° East 513 590 37,000  Level Cleveland Center
10:17PM 42.4933 -79.8539 87° East 518 596 37,000  Level Cleveland Center
10:18PM 42.4919 -79.6597 90° East 518 596 37,000  Level Cleveland Center
10:19PM 42.4944 -79.4625 89° East 512 589 37,000  Level Cleveland Center
10:20PM 42.4922 -79.2683 91° East 512 589 37,000  Level Cleveland Center
10:21PM 42.5067 -79.0764 84° East 517 595 37,000  Level Cleveland Center
10:22PM 42.5206 -78.8844 84° East 517 595 37,000  Level Cleveland Center
10:23PM 42.5322 -78.6869 85° East 517 595 37,000  Level Cleveland Center
10:24PM 42.5456 -78.4919 85° East 517 595 37,000  Level Cleveland Center
10:25PM 42.5564 -78.2972 86° East 517 595 37,000 -420 Level Cleveland Center
10:26PM 42.5692 -78.1022 85° East 517 595 36,200 -900 Descending Cleveland Center
10:27PM 42.5814 -77.9042 85° East 517 595 35,200 -1,140 Descending Cleveland Center
10:28PM 42.5950 -77.6922 85° East 517 595 34,000 -1,320 Descending Cleveland Center
10:31PM 42.6164 -77.2742 86° East 510 587 31,000 -1,320 Descending Boston Center
10:32PM 42.6267 -77.0800 86° East 510 587 29,700 -1,020 Descending Boston Center
10:33PM 42.6361 -76.8972 86° East 497 572 29,000 -360 Descending Boston Center
10:34PM 42.6453 -76.7114 86° East 492 566 29,000  Level Boston Center
10:35PM 42.6542 -76.5256 86° East 487 560 29,000 -120 Level Boston Center
10:36PM 42.6628 -76.3397 86° East 487 560 28,800 -1,140 Descending Boston Center
10:37PM 42.6731 -76.1567 86° East 492 566 26,800 -2,040 Descending Boston Center
10:38PM 42.6764 -75.9875 88° East 470 541 24,800 -1,740 Descending Boston Center
10:39PM 42.6856 -75.8269 86° East 440 506 23,000 -1,740 Descending Boston Center
10:40PM 42.6908 -75.6408 88° East 415 478 21,100 -1,740 Descending Boston Center
10:41PM 42.6972 -75.4856 87° East 410 472 19,600 -1,500 Descending Boston Center
10:42PM 42.7056 -75.3306 86° East 410 472 18,100 -1,500 Descending Boston Center
10:43PM 42.7114 -75.1783 87° East 410 472 16,600 -1,500 Descending Boston Center
10:44PM 42.7147 -75.0286 88° East 399 459 15,100 -1,440 Descending Boston Center
10:45PM 42.7200 -74.8847 87° East 394 453 13,800 -1,260 Descending Boston Center
10:46PM 42.7253 -74.7378 87° East 388 447 12,600 -1,320 Descending Boston Center
10:47PM 42.7275 -74.6278 88° East 368 423 11,600 -1,140 Descending Boston Center
10:47PM 42.7283 -74.5853 88° East 370 426 11,500 -720 Descending Boston Center
10:48PM 42.7258 -74.4947 92° East 342 394 10,900 -540 Descending Boston Center
10:48PM 42.7219 -74.4722 103° East 351 404 11,000 -240 Climbing Boston Center
10:49PM 42.7047 -74.3783 104° East 307 353 10,700 -600 Descending Boston Center
10:49PM 42.6992 -74.3469 104° East 316 364 10,400 -1,500 Descending Boston Center
10:50PM 42.6817 -74.2617 106° East 316 364 9,200 -1,560 Descending Boston Center
10:51PM 42.6606 -74.1453 104° East 320 368 7,700 -1,680 Descending Boston Center
10:52PM 42.6414 -74.0264 102° East 302 348 5,900 -1,380 Descending Boston Center
10:53PM 42.5756 -73.9656 146° Southeast 255 293 4,800 -780 Descending Boston Center
10:54PM 42.5200 -73.9161 147° Southeast 236 272 4,300 -540 Descending Boston Center
10:55PM 42.4833 -73.8561 130° Southeast 243 280 3,800 -840 Descending Boston Center
10:56PM 42.5214 -73.8006 47° Northeast 190 219 2,800 -780 Descending Boston Center
10:56PM 42.5425 -73.7928 15° North 130 150 2,600 -240 Descending Boston Center
10:57PM 42.5714 -73.8017 347° North 156 180 2,600 -120 Level Boston Center
10:57PM 42.5986 -73.8025 359° North 151 174 2,500 -120 Descending Boston Center
10:58PM 42.6214 -73.8000 North 171 197 2,500  Level Boston Center
10:58PM 42.6361 -73.8033 351° North 158 182 2,500 -840 Level Boston Center
10:59PM 42.6672 -73.8039 359° North 173 199 1,700 -1,740 Descending Boston Center